Time;durP1;ratioP1;P1;durP2;ratioP2;P2;SDS_P1;SDS_P2;PMS_P1;PMS_P2;Temp;Humidity;BMP_temperature;BMP_pressure;BME280_temperature;BME280_humidity;BME280_pressure;Samples;Min_cycle;Max_cycle;Signal;HPM_P1;HPM_P2
2021/01/24 00:01:10;;;;;;;;;;;;;;;;;;5018636;28;883;-70
2021/01/24 00:03:36;;;;;;;;;;;;;;;;;;5021423;28;1010;-72
2021/01/24 00:06:01;;;;;;;;;;;;;;;;;;5017922;28;1065;-71
2021/01/24 00:08:27;;;;;;;;;;;;;;;;;;5026820;28;1056;-71
2021/01/24 00:10:52;;;;;;;;;;;;;;;;;;5025451;28;1050;-71
2021/01/24 00:13:17;;;;;;;;;;;;;;;;;;5017890;28;1899;-70
2021/01/24 00:15:43;;;;;;;;;;;;;;;;;;5025240;28;1013;-72
2021/01/24 00:18:08;;;;;;;;;;;;;;;;;;5020400;28;954;-71
2021/01/24 00:20:34;;;;;;;;;;;;;;;;;;5017538;28;978;-71
2021/01/24 00:22:59;;;;;;;;;;;;;;;;;;5023594;28;1061;-71
2021/01/24 00:25:24;;;;;;;;;;;;;;;;;;5016625;28;1025;-71
2021/01/24 00:27:50;;;;;;;;;;;;;;;;;;5024986;28;954;-72
2021/01/24 00:30:17;;;;;;;;;;;;;;;;;;5024841;28;1176;-71
2021/01/24 00:32:42;;;;;;;;;;;;;;;;;;5026451;28;1005;-70
2021/01/24 00:35:09;;;;;;;;;;;;;;;;;;5026756;28;1971;-70
2021/01/24 00:37:34;;;;;;;;;;;;;;;;;;5021841;28;962;-72
2021/01/24 00:39:59;;;;;;;;;;;;;;;;;;5025699;28;1148;-72
2021/01/24 00:42:25;;;;;;;;;;;;;;;;;;5026763;28;965;-71
2021/01/24 00:44:50;;;;;;;;;;;;;;;;;;5026230;28;1049;-71
2021/01/24 00:47:15;;;;;;;;;;;;;;;;;;5026622;28;1084;-71
2021/01/24 00:49:41;;;;;;;;;;;;;;;;;;5025263;28;1069;-71
2021/01/24 00:52:06;;;;;;;;;;;;;;;;;;5027522;28;942;-69
2021/01/24 00:54:32;;;;;;;;;;;;;;;;;;5018604;28;1914;-70
2021/01/24 00:56:57;;;;;;;;;;;;;;;;;;5024243;28;1089;-71
2021/01/24 00:59:22;;;;;;;;;;;;;;;;;;5026577;28;990;-71
2021/01/24 01:01:48;;;;;;;;;;;;;;;;;;5025811;28;1072;-71
2021/01/24 01:04:13;;;;;;;;;;;;;;;;;;5025407;28;1128;-71
2021/01/24 01:06:39;;;;;;;;;;;;;;;;;;5026892;28;1005;-70
2021/01/24 01:09:04;;;;;;;;;;;;;;;;;;5024636;28;1073;-71
2021/01/24 01:11:30;;;;;;;;;;;;;;;;;;5021101;28;1031;-71
2021/01/24 01:13:55;;;;;;;;;;;;;;;;;;5018621;28;1981;-69
2021/01/24 01:16:20;;;;;;;;;;;;;;;;;;5024282;28;1132;-70
2021/01/24 01:18:46;;;;;;;;;;;;;;;;;;5020266;28;1025;-70
2021/01/24 01:21:11;;;;;;;;;;;;;;;;;;5018565;28;890;-71
2021/01/24 01:23:37;;;;;;;;;;;;;;;;;;5024823;28;1191;-71
2021/01/24 01:26:02;;;;;;;;;;;;;;;;;;5025512;28;1018;-71
2021/01/24 01:28:27;;;;;;;;;;;;;;;;;;5025541;28;1081;-71
2021/01/24 01:30:53;;;;;;;;;;;;;;;;;;5029308;28;1021;-71
2021/01/24 01:33:18;;;;;;;;;;;;;;;;;;5029770;28;1964;-70
2021/01/24 01:35:44;;;;;;;;;;;;;;;;;;5028650;28;1088;-71
2021/01/24 01:38:09;;;;;;;;;;;;;;;;;;5029466;28;946;-70
2021/01/24 01:40:35;;;;;;;;;;;;;;;;;;5026538;28;982;-71
2021/01/24 01:43:00;;;;;;;;;;;;;;;;;;5029501;28;954;-70
2021/01/24 01:45:26;;;;;;;;;;;;;;;;;;5029179;28;1183;-71
2021/01/24 01:47:51;;;;;;;;;;;;;;;;;;5027145;28;890;-71
2021/01/24 01:50:20;;;;;;;;;;;;;;;;;;5029099;28;1136;-71
2021/01/24 01:52:46;;;;;;;;;;;;;;;;;;5029109;28;934;-71
2021/01/24 01:55:11;;;;;;;;;;;;;;;;;;5021835;28;2171;-71
2021/01/24 01:57:37;;;;;;;;;;;;;;;;;;5030059;28;1033;-71
2021/01/24 02:00:05;;;;;;;;;;;;;;;;;;5029504;28;993;-71
2021/01/24 02:02:49;;;;;;;;;;;;;;;;;;5029589;28;1128;-71
2021/01/24 02:05:21;;;;;;;;;;;;;;;;;;5029257;28;906;-72
2021/01/24 02:08:02;;;;;;;;;;;;;;;;;;5028573;28;1076;-71
2021/01/24 02:10:43;;;;;;;;;;;;;;;;;;5027875;28;1048;-71
2021/01/24 02:13:08;;;;;;;;;;;;;;;;;;5025100;28;1046;-71
2021/01/24 02:15:34;;;;;;;;;;;;;;;;;;5028637;28;2011;-70
2021/01/24 02:18:02;;;;;;;;;;;;;;;;;;5028581;28;1077;-71
2021/01/24 02:20:40;;;;;;;;;;;;;;;;;;5029285;28;902;-71
2021/01/24 02:23:09;;;;;;;;;;;;;;;;;;5020177;28;1121;-69
2021/01/24 02:25:44;;;;;;;;;;;;;;;;;;5028257;28;969;-72
2021/01/24 02:28:15;;;;;;;;;;;;;;;;;;5029733;28;982;-71
2021/01/24 02:30:40;;;;;;;;;;;;;;;;;;5028153;28;981;-70
2021/01/24 02:33:08;;;;;;;;;;;;;;;;;;5029396;28;914;-70
2021/01/24 02:35:36;;;;;;;;;;;;;;;;;;5023766;28;1968;-70
2021/01/24 02:38:03;;;;;;;;;;;;;;;;;;5028457;28;978;-69
2021/01/24 02:40:30;;;;;;;;;;;;;;;;;;5026708;28;966;-70
2021/01/24 02:42:56;;;;;;;;;;;;;;;;;;5013061;28;1151;-68
2021/01/24 02:45:22;;;;;;;;;;;;;;;;;;5028385;28;1164;-70
2021/01/24 02:47:48;;;;;;;;;;;;;;;;;;5028410;28;1097;-70
2021/01/24 02:50:14;;;;;;;;;;;;;;;;;;5028014;28;1092;-67
2021/01/24 02:52:40;;;;;;;;;;;;;;;;;;5029317;28;911;-70
2021/01/24 02:55:06;;;;;;;;;;;;;;;;;;5021086;28;1998;-70
2021/01/24 02:57:32;;;;;;;;;;;;;;;;;;5024130;28;1147;-70
2021/01/24 02:59:57;;;;;;;;;;;;;;;;;;5025528;28;1492;-70
2021/01/24 03:02:23;;;;;;;;;;;;;;;;;;5028456;28;1208;-69
2021/01/24 03:04:48;;;;;;;;;;;;;;;;;;5027992;28;1049;-70
2021/01/24 03:07:13;;;;;;;;;;;;;;;;;;5026642;28;1142;-69
2021/01/24 03:09:39;;;;;;;;;;;;;;;;;;5027756;28;1029;-69
2021/01/24 03:12:05;;;;;;;;;;;;;;;;;;5027468;28;1144;-69
2021/01/24 03:14:32;;;;;;;;;;;;;;;;;;5027144;28;1906;-69
2021/01/24 03:16:59;;;;;;;;;;;;;;;;;;5027758;28;1033;-67
2021/01/24 03:19:26;;;;;;;;;;;;;;;;;;5027882;28;926;-69
2021/01/24 03:21:52;;;;;;;;;;;;;;;;;;5027496;28;1025;-69
2021/01/24 03:24:18;;;;;;;;;;;;;;;;;;5027023;28;1060;-70
2021/01/24 03:26:44;;;;;;;;;;;;;;;;;;5015332;28;1129;-69
2021/01/24 03:29:09;;;;;;;;;;;;;;;;;;5019238;28;1065;-69
2021/01/24 03:31:35;;;;;;;;;;;;;;;;;;5013858;28;1084;-67
2021/01/24 03:34:02;;;;;;;;;;;;;;;;;;5019707;28;1975;-69
2021/01/24 03:36:27;;;;;;;;;;;;;;;;;;5015692;28;978;-69
2021/01/24 03:38:52;;;;;;;;;;;;;;;;;;5012321;28;988;-69
2021/01/24 03:41:18;;;;;;;;;;;;;;;;;;5018896;28;1140;-68
2021/01/24 03:43:43;;;;;;;;;;;;;;;;;;5012978;28;1061;-67
2021/01/24 03:46:08;;;;;;;;;;;;;;;;;;5022956;28;1061;-69
2021/01/24 03:48:34;;;;;;;;;;;;;;;;;;5013703;28;1037;-69
2021/01/24 03:50:59;;;;;;;;;;;;;;;;;;5019805;28;1017;-67
2021/01/24 03:53:24;;;;;;;;;;;;;;;;;;5014966;28;1977;-68
2021/01/24 03:55:50;;;;;;;;;;;;;;;;;;5011341;28;911;-69
2021/01/24 03:58:15;;;;;;;;;;;;;;;;;;5019564;28;1128;-68
2021/01/24 04:00:40;;;;;;;;;;;;;;;;;;5013979;28;1059;-68
2021/01/24 04:03:06;;;;;;;;;;;;;;;;;;5022733;28;946;-68
2021/01/24 04:05:31;;;;;;;;;;;;;;;;;;5009879;28;950;-69
2021/01/24 04:07:57;;;;;;;;;;;;;;;;;;5019730;28;1101;-67
2021/01/24 04:10:22;;;;;;;;;;;;;;;;;;5025967;28;1094;-68
2021/01/24 04:12:47;;;;;;;;;;;;;;;;;;5022481;28;1009;-66
2021/01/24 04:15:14;;;;;;;;;;;;;;;;;;5021792;28;1906;-68
2021/01/24 04:17:39;;;;;;;;;;;;;;;;;;5025240;28;982;-68
2021/01/24 04:20:05;;;;;;;;;;;;;;;;;;5016321;28;977;-68
2021/01/24 04:22:30;;;;;;;;;;;;;;;;;;5021417;28;942;-68
2021/01/24 04:24:55;;;;;;;;;;;;;;;;;;5020366;28;915;-68
2021/01/24 04:27:21;;;;;;;;;;;;;;;;;;5021329;28;1072;-69
2021/01/24 04:29:46;;;;;;;;;;;;;;;;;;5021862;28;990;-68
2021/01/24 04:32:11;;;;;;;;;;;;;;;;;;5021580;28;1005;-68
2021/01/24 04:34:37;;;;;;;;;;;;;;;;;;5023872;28;1906;-67
2021/01/24 04:37:02;;;;;;;;;;;;;;;;;;5016790;28;1112;-68
2021/01/24 04:39:27;;;;;;;;;;;;;;;;;;5020240;28;1049;-69
2021/01/24 04:41:53;;;;;;;;;;;;;;;;;;5020170;28;994;-68
2021/01/24 04:44:19;;;;;;;;;;;;;;;;;;5021468;28;1099;-68
2021/01/24 04:46:45;;;;;;;;;;;;;;;;;;5025789;28;994;-68
2021/01/24 04:49:11;;;;;;;;;;;;;;;;;;5027543;28;1088;-68
2021/01/24 04:51:38;;;;;;;;;;;;;;;;;;5026587;28;1093;-67
2021/01/24 04:54:04;;;;;;;;;;;;;;;;;;5026086;28;1890;-69
2021/01/24 04:56:30;;;;;;;;;;;;;;;;;;5026229;28;1083;-66
2021/01/24 04:58:55;;;;;;;;;;;;;;;;;;5026876;28;1128;-67
2021/01/24 05:01:23;;;;;;;;;;;;;;;;;;5026226;28;993;-68
2021/01/24 05:03:49;;;;;;;;;;;;;;;;;;5026645;28;1058;-68
2021/01/24 05:06:14;;;;;;;;;;;;;;;;;;5030417;28;1057;-68
2021/01/24 05:08:49;;;;;;;;;;;;;;;;;;5027957;28;1033;-67
2021/01/24 05:11:14;;;;;;;;;;;;;;;;;;5026901;28;1096;-66
2021/01/24 05:13:39;;;;;;;;;;;;;;;;;;5023311;28;1902;-68
2021/01/24 05:16:06;;;;;;;;;;;;;;;;;;5030057;28;1065;-67
2021/01/24 05:18:32;;;;;;;;;;;;;;;;;;5027049;28;1262;-68
2021/01/24 05:20:58;;;;;;;;;;;;;;;;;;5030006;28;1056;-66
2021/01/24 05:23:24;;;;;;;;;;;;;;;;;;5024443;28;1081;-68
2021/01/24 05:25:49;;;;;;;;;;;;;;;;;;5022870;28;1119;-68
2021/01/24 05:28:21;;;;;;;;;;;;;;;;;;5026937;28;1128;-68
2021/01/24 05:30:47;;;;;;;;;;;;;;;;;;5020917;28;994;-64
2021/01/24 05:33:21;;;;;;;;;;;;;;;;;;5024700;28;1109;-68
2021/01/24 05:35:51;;;;;;;;;;;;;;;;;;5023907;28;1049;-68
2021/01/24 05:38:21;;;;;;;;;;;;;;;;;;5021945;28;1004;-66
2021/01/24 05:40:46;;;;;;;;;;;;;;;;;;5025822;28;1048;-68
2021/01/24 05:43:13;;;;;;;;;;;;;;;;;;5023420;28;1012;-68
2021/01/24 05:45:38;;;;;;;;;;;;;;;;;;5022288;28;1139;-67
2021/01/24 05:48:04;;;;;;;;;;;;;;;;;;5023345;28;1140;-67
2021/01/24 05:50:33;;;;;;;;;;;;;;;;;;5020739;28;1076;-66
2021/01/24 05:53:02;;;;;;;;;;;;;;;;;;5022021;28;958;-67
2021/01/24 05:55:29;;;;;;;;;;;;;;;;;;5014842;28;1969;-67
2021/01/24 05:57:54;;;;;;;;;;;;;;;;;;5021301;28;1034;-66
2021/01/24 06:00:20;;;;;;;;;;;;;;;;;;5017234;28;981;-66
2021/01/24 06:02:46;;;;;;;;;;;;;;;;;;5022097;28;1124;-67
2021/01/24 06:05:11;;;;;;;;;;;;;;;;;;5023402;28;1065;-66
2021/01/24 06:07:37;;;;;;;;;;;;;;;;;;5021279;28;1074;-67
2021/01/24 06:10:02;;;;;;;;;;;;;;;;;;5027186;28;1078;-66
2021/01/24 06:12:28;;;;;;;;;;;;;;;;;;5025104;28;1028;-67
2021/01/24 06:14:54;;;;;;;;;;;;;;;;;;5021093;28;1981;-67
2021/01/24 06:17:19;;;;;;;;;;;;;;;;;;5025066;28;1021;-67
2021/01/24 06:19:47;;;;;;;;;;;;;;;;;;5018756;28;970;-67
2021/01/24 06:22:14;;;;;;;;;;;;;;;;;;5022988;28;1116;-67
2021/01/24 06:24:43;;;;;;;;;;;;;;;;;;5024224;28;1013;-67
2021/01/24 06:27:10;;;;;;;;;;;;;;;;;;5022482;28;1025;-67
2021/01/24 06:29:36;;;;;;;;;;;;;;;;;;5028122;28;1021;-66
2021/01/24 06:32:01;;;;;;;;;;;;;;;;;;5028334;28;1040;-67
2021/01/24 06:34:34;;;;;;;;;;;;;;;;;;5020167;28;1977;-68
2021/01/24 06:37:09;;;;;;;;;;;;;;;;;;5023753;28;999;-66
2021/01/24 06:39:42;;;;;;;;;;;;;;;;;;5022211;28;1156;-66
2021/01/24 06:42:07;;;;;;;;;;;;;;;;;;5012329;28;1073;-68
2021/01/24 06:44:34;;;;;;;;;;;;;;;;;;5020365;28;1149;-67
2021/01/24 06:46:59;;;;;;;;;;;;;;;;;;5016593;28;1077;-69
2021/01/24 06:49:43;;;;;;;;;;;;;;;;;;5021277;28;979;-69
2021/01/24 06:52:18;;;;;;;;;;;;;;;;;;5011691;28;1121;-69
2021/01/24 06:54:44;;;;;;;;;;;;;;;;;;5012638;28;1898;-69
2021/01/24 06:57:10;;;;;;;;;;;;;;;;;;5020281;28;935;-69
2021/01/24 06:59:36;;;;;;;;;;;;;;;;;;5011803;28;1064;-68
2021/01/24 07:02:19;;;;;;;;;;;;;;;;;;5021934;28;1183;-68
2021/01/24 07:05:07;;;;;;;;;;;;;;;;;;5017586;28;1017;-67
2021/01/24 07:07:33;;;;;;;;;;;;;;;;;;5020526;28;1031;-68
2021/01/24 07:09:59;;;;;;;;;;;;;;;;;;4920211;28;10902;-69
2021/01/24 07:12:34;;;;;;;;;;;;;;;;;;5021242;28;1258;-67
2021/01/24 07:15:00;;;;;;;;;;;;;;;;;;5015071;28;1918;-67
2021/01/24 07:17:25;;;;;;;;;;;;;;;;;;5014456;28;1429;-69
2021/01/24 07:19:52;;;;;;;;;;;;;;;;;;5008204;28;1118;-68
2021/01/24 07:22:20;;;;;;;;;;;;;;;;;;5013586;28;1173;-68
2021/01/24 07:24:46;;;;;;;;;;;;;;;;;;5006817;28;1671;-67
2021/01/24 07:27:13;;;;;;;;;;;;;;;;;;5010334;28;1536;-68
2021/01/24 07:29:39;;;;;;;;;;;;;;;;;;5007576;28;1037;-67
2021/01/24 07:32:08;;;;;;;;;;;;;;;;;;5002855;28;1543;-67
2021/01/24 07:34:34;;;;;;;;;;;;;;;;;;5006718;28;1890;-69
2021/01/24 07:36:59;;;;;;;;;;;;;;;;;;5016255;28;1121;-69
2021/01/24 07:39:25;;;;;;;;;;;;;;;;;;5014846;28;1155;-69
2021/01/24 07:41:51;;;;;;;;;;;;;;;;;;5013135;28;1025;-69
2021/01/24 07:44:16;;;;;;;;;;;;;;;;;;5012906;28;1082;-68
2021/01/24 07:46:42;;;;;;;;;;;;;;;;;;5010010;28;1104;-69
2021/01/24 07:49:08;;;;;;;;;;;;;;;;;;5015230;28;1092;-66
2021/01/24 07:51:34;;;;;;;;;;;;;;;;;;5006609;28;987;-64
2021/01/24 07:54:00;;;;;;;;;;;;;;;;;;5015650;28;1910;-67
2021/01/24 07:56:25;;;;;;;;;;;;;;;;;;5001330;28;1023;-66
2021/01/24 07:58:51;;;;;;;;;;;;;;;;;;5014676;28;989;-64
2021/01/24 08:01:17;;;;;;;;;;;;;;;;;;5004894;28;919;-68
2021/01/24 08:03:42;;;;;;;;;;;;;;;;;;5007796;28;927;-68
2021/01/24 08:06:09;;;;;;;;;;;;;;;;;;5003880;28;2493;-69
2021/01/24 08:08:35;;;;;;;;;;;;;;;;;;5006003;28;1118;-69
2021/01/24 08:11:00;;;;;;;;;;;;;;;;;;5007919;28;1092;-69
2021/01/24 08:13:26;;;;;;;;;;;;;;;;;;5007532;28;2001;-69
2021/01/24 08:15:51;;;;;;;;;;;;;;;;;;5007505;28;835;-69
2021/01/24 08:18:18;;;;;;;;;;;;;;;;;;5008191;28;882;-70
2021/01/24 08:20:44;;;;;;;;;;;;;;;;;;5007835;28;828;-69
2021/01/24 08:23:10;;;;;;;;;;;;;;;;;;5008037;28;855;-69
2021/01/24 08:25:35;;;;;;;;;;;;;;;;;;5007387;28;1066;-68
2021/01/24 08:28:01;;;;;;;;;;;;;;;;;;5007671;28;898;-68
2021/01/24 08:30:26;;;;;;;;;;;;;;;;;;5005645;28;2429;-68
2021/01/24 08:32:51;;;;;;;;;;;;;;;;;;4999872;28;1027;-66
2021/01/24 08:35:17;;;;;;;;;;;;;;;;;;4988289;28;1965;-67
2021/01/24 08:37:42;;;;;;;;;;;;;;;;;;5002223;28;1136;-67
2021/01/24 08:40:08;;;;;;;;;;;;;;;;;;5006580;28;854;-68
2021/01/24 08:42:43;;;;;;;;;;;;;;;;;;5007729;28;859;-69
2021/01/24 08:45:09;;;;;;;;;;;;;;;;;;5007688;28;988;-69
2021/01/24 08:47:34;;;;;;;;;;;;;;;;;;5007566;28;933;-69
2021/01/24 08:50:10;;;;;;;;;;;;;;;;;;5007409;28;1065;-67
2021/01/24 08:52:36;;;;;;;;;;;;;;;;;;5008045;28;857;-70
2021/01/24 08:55:03;;;;;;;;;;;;;;;;;;5006063;28;1889;-69
2021/01/24 08:57:33;;;;;;;;;;;;;;;;;;5007206;28;894;-69
2021/01/24 09:00:00;;;;;;;;;;;;;;;;;;5007157;28;891;-69
2021/01/24 09:02:32;;;;;;;;;;;;;;;;;;5006645;28;964;-68
2021/01/24 09:04:58;;;;;;;;;;;;;;;;;;5007121;28;843;-68
2021/01/24 09:07:33;;;;;;;;;;;;;;;;;;5007045;28;867;-68
2021/01/24 09:10:11;;;;;;;;;;;;;;;;;;5007061;28;1087;-69
2021/01/24 09:12:37;;;;;;;;;;;;;;;;;;5007321;28;851;-69
2021/01/24 09:15:02;;;;;;;;;;;;;;;;;;5007056;28;1980;-68
2021/01/24 09:17:27;;;;;;;;;;;;;;;;;;5007769;28;917;-69
2021/01/24 09:19:53;;;;;;;;;;;;;;;;;;5007339;28;847;-67
2021/01/24 09:22:18;;;;;;;;;;;;;;;;;;5007532;28;906;-69
2021/01/24 09:24:44;;;;;;;;;;;;;;;;;;5008270;28;863;-70
2021/01/24 09:27:10;;;;;;;;;;;;;;;;;;4988660;28;970;-68
2021/01/24 09:29:35;;;;;;;;;;;;;;;;;;4987450;28;867;-70
2021/01/24 09:32:01;;;;;;;;;;;;;;;;;;4987511;28;832;-69
2021/01/24 09:34:26;;;;;;;;;;;;;;;;;;5003113;28;1899;-69
2021/01/24 09:36:52;;;;;;;;;;;;;;;;;;4987821;28;843;-69
2021/01/24 09:39:18;;;;;;;;;;;;;;;;;;4987572;28;898;-70
2021/01/24 09:41:43;;;;;;;;;;;;;;;;;;4988934;28;827;-69
2021/01/24 09:44:08;;;;;;;;;;;;;;;;;;4987766;28;886;-68
2021/01/24 09:46:34;;;;;;;;;;;;;;;;;;4987799;28;842;-69
2021/01/24 09:49:00;;;;;;;;;;;;;;;;;;4987493;28;843;-68
2021/01/24 09:51:26;;;;;;;;;;;;;;;;;;4990150;28;970;-67
2021/01/24 09:53:51;;;;;;;;;;;;;;;;;;4990281;28;1969;-69
2021/01/24 09:56:17;;;;;;;;;;;;;;;;;;4990476;28;879;-68
2021/01/24 09:58:42;;;;;;;;;;;;;;;;;;4991709;28;812;-69
2021/01/24 10:01:08;;;;;;;;;;;;;;;;;;4990306;28;907;-68
2021/01/24 10:03:34;;;;;;;;;;;;;;;;;;4990736;28;874;-68
2021/01/24 10:05:59;;;;;;;;;;;;;;;;;;4990805;28;887;-69
2021/01/24 10:08:25;;;;;;;;;;;;;;;;;;4990710;28;803;-69
2021/01/24 10:10:50;;;;;;;;;;;;;;;;;;5003678;28;1175;-69
2021/01/24 10:13:15;;;;;;;;;;;;;;;;;;5010387;28;882;-70
2021/01/24 10:15:41;;;;;;;;;;;;;;;;;;5011182;28;1977;-68
2021/01/24 10:18:06;;;;;;;;;;;;;;;;;;5009922;28;882;-68
2021/01/24 10:20:32;;;;;;;;;;;;;;;;;;5009387;28;856;-69
2021/01/24 10:22:57;;;;;;;;;;;;;;;;;;5010152;28;918;-69
2021/01/24 10:25:24;;;;;;;;;;;;;;;;;;5010174;28;1069;-69
2021/01/24 10:27:49;;;;;;;;;;;;;;;;;;5009736;28;839;-69
2021/01/24 10:30:15;;;;;;;;;;;;;;;;;;5010273;28;894;-69
2021/01/24 10:32:41;;;;;;;;;;;;;;;;;;5010639;28;938;-67
2021/01/24 10:35:07;;;;;;;;;;;;;;;;;;5009646;28;1894;-68
2021/01/24 10:37:32;;;;;;;;;;;;;;;;;;5009591;28;927;-69
2021/01/24 10:39:57;;;;;;;;;;;;;;;;;;5009722;28;831;-68
2021/01/24 10:42:22;;;;;;;;;;;;;;;;;;5009344;28;819;-69
2021/01/24 10:44:48;;;;;;;;;;;;;;;;;;5009347;28;886;-69
2021/01/24 10:47:13;;;;;;;;;;;;;;;;;;5010389;28;903;-69
2021/01/24 10:49:38;;;;;;;;;;;;;;;;;;5009912;28;803;-67
2021/01/24 10:52:06;;;;;;;;;;;;;;;;;;5009169;28;902;-70
2021/01/24 10:54:33;;;;;;;;;;;;;;;;;;5009012;28;1898;-66
2021/01/24 10:56:59;;;;;;;;;;;;;;;;;;5009289;28;954;-67
2021/01/24 10:59:24;;;;;;;;;;;;;;;;;;5008773;28;965;-69
2021/01/24 11:01:49;;;;;;;;;;;;;;;;;;5007814;28;920;-69
2021/01/24 11:04:15;;;;;;;;;;;;;;;;;;5010164;28;831;-69
2021/01/24 11:06:41;;;;;;;;;;;;;;;;;;5009845;28;877;-68
2021/01/24 11:09:06;;;;;;;;;;;;;;;;;;5008275;28;1198;-69
2021/01/24 11:11:31;;;;;;;;;;;;;;;;;;5008546;28;1068;-66
2021/01/24 11:13:57;;;;;;;;;;;;;;;;;;5009118;28;1890;-68
2021/01/24 11:16:22;;;;;;;;;;;;;;;;;;5008735;28;878;-69
2021/01/24 11:18:47;;;;;;;;;;;;;;;;;;5008805;28;862;-68
2021/01/24 11:21:13;;;;;;;;;;;;;;;;;;5009981;28;922;-69
2021/01/24 11:23:38;;;;;;;;;;;;;;;;;;5008537;28;807;-69
2021/01/24 11:26:03;;;;;;;;;;;;;;;;;;5008255;28;1172;-69
2021/01/24 11:28:29;;;;;;;;;;;;;;;;;;5009230;28;827;-69
2021/01/24 11:30:54;;;;;;;;;;;;;;;;;;5009071;28;1077;-65
2021/01/24 11:33:20;;;;;;;;;;;;;;;;;;5008318;28;871;-69
2021/01/24 11:35:45;;;;;;;;;;;;;;;;;;5007935;28;1922;-71
2021/01/24 11:38:10;;;;;;;;;;;;;;;;;;5009725;28;835;-68
2021/01/24 11:40:36;;;;;;;;;;;;;;;;;;5008860;28;815;-67
2021/01/24 11:43:01;;;;;;;;;;;;;;;;;;5008608;28;859;-68
2021/01/24 11:45:26;;;;;;;;;;;;;;;;;;5008774;28;874;-69
2021/01/24 11:47:52;;;;;;;;;;;;;;;;;;5008875;28;812;-68
2021/01/24 11:50:17;;;;;;;;;;;;;;;;;;5008504;28;827;-68
2021/01/24 11:52:42;;;;;;;;;;;;;;;;;;5009307;28;883;-69
2021/01/24 11:55:08;;;;;;;;;;;;;;;;;;5008784;28;1902;-68
2021/01/24 11:57:33;;;;;;;;;;;;;;;;;;5008446;28;879;-69
2021/01/24 11:59:59;;;;;;;;;;;;;;;;;;5008217;28;875;-68
2021/01/24 12:02:25;;;;;;;;;;;;;;;;;;5008434;28;816;-69
2021/01/24 12:04:51;;;;;;;;;;;;;;;;;;5008406;28;836;-69
2021/01/24 12:07:16;;;;;;;;;;;;;;;;;;5006663;28;1302;-70
2021/01/24 12:09:42;;;;;;;;;;;;;;;;;;5008449;28;1084;-68
2021/01/24 12:12:08;;;;;;;;;;;;;;;;;;5008188;28;922;-68
2021/01/24 12:14:33;;;;;;;;;;;;;;;;;;5007961;28;1902;-68
2021/01/24 12:16:59;;;;;;;;;;;;;;;;;;5008280;28;876;-68
2021/01/24 12:19:24;;;;;;;;;;;;;;;;;;5008633;28;950;-69
2021/01/24 12:21:49;;;;;;;;;;;;;;;;;;5008614;28;946;-68
2021/01/24 12:24:15;;;;;;;;;;;;;;;;;;5008222;28;820;-67
2021/01/24 12:26:42;;;;;;;;;;;;;;;;;;5007733;28;951;-68
2021/01/24 12:29:08;;;;;;;;;;;;;;;;;;5008530;28;942;-68
2021/01/24 12:31:33;;;;;;;;;;;;;;;;;;5007981;28;894;-68
2021/01/24 12:33:59;;;;;;;;;;;;;;;;;;5007881;28;1890;-68
2021/01/24 12:36:24;;;;;;;;;;;;;;;;;;5008600;28;862;-69
2021/01/24 12:38:49;;;;;;;;;;;;;;;;;;5008221;28;808;-67
2021/01/24 12:41:15;;;;;;;;;;;;;;;;;;5008620;28;804;-66
2021/01/24 12:43:40;;;;;;;;;;;;;;;;;;5007960;28;800;-68
2021/01/24 12:46:05;;;;;;;;;;;;;;;;;;5008127;28;902;-68
2021/01/24 12:48:31;;;;;;;;;;;;;;;;;;5007669;28;839;-68
2021/01/24 12:50:56;;;;;;;;;;;;;;;;;;5007386;28;820;-67
2021/01/24 12:53:21;;;;;;;;;;;;;;;;;;5008156;28;958;-68
2021/01/24 12:55:47;;;;;;;;;;;;;;;;;;5007845;28;1965;-70
2021/01/24 12:58:12;;;;;;;;;;;;;;;;;;5008644;28;883;-68
2021/01/24 13:00:37;;;;;;;;;;;;;;;;;;5007904;28;819;-68
2021/01/24 13:03:03;;;;;;;;;;;;;;;;;;5008154;28;914;-68
2021/01/24 13:05:28;;;;;;;;;;;;;;;;;;5007793;28;875;-68
2021/01/24 13:07:53;;;;;;;;;;;;;;;;;;5007103;28;1230;-68
2021/01/24 13:10:19;;;;;;;;;;;;;;;;;;5008106;28;1163;-69
2021/01/24 13:12:44;;;;;;;;;;;;;;;;;;5008399;28;819;-68
2021/01/24 13:15:10;;;;;;;;;;;;;;;;;;5007698;28;1898;-68
2021/01/24 13:17:35;;;;;;;;;;;;;;;;;;5007897;28;950;-68
2021/01/24 13:20:01;;;;;;;;;;;;;;;;;;5007468;28;820;-66
2021/01/24 13:22:26;;;;;;;;;;;;;;;;;;5007364;28;854;-66
2021/01/24 13:24:51;;;;;;;;;;;;;;;;;;5007358;28;1073;-68
2021/01/24 13:27:17;;;;;;;;;;;;;;;;;;5011391;28;855;-70
2021/01/24 13:29:42;;;;;;;;;;;;;;;;;;5011830;28;855;-67
2021/01/24 13:32:07;;;;;;;;;;;;;;;;;;5010717;28;866;-68
2021/01/24 13:34:33;;;;;;;;;;;;;;;;;;5010809;28;2011;-66
2021/01/24 13:36:58;;;;;;;;;;;;;;;;;;5010852;28;799;-67
2021/01/24 13:39:24;;;;;;;;;;;;;;;;;;5010400;28;894;-67
2021/01/24 13:41:49;;;;;;;;;;;;;;;;;;5010810;28;875;-68
2021/01/24 13:44:15;;;;;;;;;;;;;;;;;;5011982;28;918;-68
2021/01/24 13:46:40;;;;;;;;;;;;;;;;;;5010831;28;831;-67
2021/01/24 13:49:06;;;;;;;;;;;;;;;;;;5010836;28;800;-67
2021/01/24 13:51:31;;;;;;;;;;;;;;;;;;5011326;28;816;-68
2021/01/24 13:53:56;;;;;;;;;;;;;;;;;;5010430;28;1890;-69
2021/01/24 13:56:22;;;;;;;;;;;;;;;;;;5010160;28;788;-67
2021/01/24 13:58:47;;;;;;;;;;;;;;;;;;5010794;28;949;-70
2021/01/24 14:01:13;;;;;;;;;;;;;;;;;;5011390;28;839;-68
2021/01/24 14:03:38;;;;;;;;;;;;;;;;;;5010554;28;811;-69
2021/01/24 14:06:04;;;;;;;;;;;;;;;;;;5010267;28;964;-66
2021/01/24 14:08:29;;;;;;;;;;;;;;;;;;5010862;28;910;-68
2021/01/24 14:10:54;;;;;;;;;;;;;;;;;;5010238;28;1179;-67
2021/01/24 14:13:20;;;;;;;;;;;;;;;;;;5010249;28;816;-66
2021/01/24 14:15:45;;;;;;;;;;;;;;;;;;5011248;28;1902;-68
2021/01/24 14:18:10;;;;;;;;;;;;;;;;;;5010188;28;862;-68
2021/01/24 14:20:36;;;;;;;;;;;;;;;;;;5009857;28;659;-68
2021/01/24 14:23:02;;;;;;;;;;;;;;;;;;5009366;28;882;-68
2021/01/24 14:25:28;;;;;;;;;;;;;;;;;;5009552;28;986;-68
2021/01/24 14:27:53;;;;;;;;;;;;;;;;;;5009532;28;946;-68
2021/01/24 14:30:19;;;;;;;;;;;;;;;;;;5009785;28;799;-67
2021/01/24 14:32:46;;;;;;;;;;;;;;;;;;5011071;28;1099;-68
2021/01/24 14:35:12;;;;;;;;;;;;;;;;;;5010377;28;1954;-68
2021/01/24 14:37:37;;;;;;;;;;;;;;;;;;5008631;28;807;-67
2021/01/24 14:40:03;;;;;;;;;;;;;;;;;;5009548;28;855;-67
2021/01/24 14:42:28;;;;;;;;;;;;;;;;;;5010050;28;886;-68
2021/01/24 14:44:53;;;;;;;;;;;;;;;;;;5009405;28;942;-67
2021/01/24 14:47:19;;;;;;;;;;;;;;;;;;5009370;28;909;-69
2021/01/24 14:49:44;;;;;;;;;;;;;;;;;;5010372;28;847;-66
2021/01/24 14:52:09;;;;;;;;;;;;;;;;;;5009254;28;902;-67
2021/01/24 14:54:35;;;;;;;;;;;;;;;;;;5009370;28;1902;-68
2021/01/24 14:57:00;;;;;;;;;;;;;;;;;;5009239;28;913;-68
2021/01/24 14:59:26;;;;;;;;;;;;;;;;;;5009167;28;897;-68
2021/01/24 15:01:51;;;;;;;;;;;;;;;;;;5008899;28;920;-67
2021/01/24 15:04:17;;;;;;;;;;;;;;;;;;5009459;28;791;-69
2021/01/24 15:06:45;;;;;;;;;;;;;;;;;;5009704;28;827;-66
2021/01/24 15:09:10;;;;;;;;;;;;;;;;;;5008890;28;1167;-67
2021/01/24 15:11:36;;;;;;;;;;;;;;;;;;5008952;28;830;-67
2021/01/24 15:14:01;;;;;;;;;;;;;;;;;;5008763;28;1980;-68
2021/01/24 15:16:26;;;;;;;;;;;;;;;;;;5009224;28;919;-66
2021/01/24 15:18:52;;;;;;;;;;;;;;;;;;5008857;28;914;-68
2021/01/24 15:21:17;;;;;;;;;;;;;;;;;;5009053;28;882;-69
2021/01/24 15:23:43;;;;;;;;;;;;;;;;;;5010269;28;828;-68
2021/01/24 15:26:08;;;;;;;;;;;;;;;;;;5008558;28;1074;-68
2021/01/24 15:28:33;;;;;;;;;;;;;;;;;;5008409;28;835;-67
2021/01/24 15:30:59;;;;;;;;;;;;;;;;;;5008316;28;907;-67
2021/01/24 15:33:24;;;;;;;;;;;;;;;;;;5008105;28;1087;-69
2021/01/24 15:35:50;;;;;;;;;;;;;;;;;;5008026;28;1903;-66
2021/01/24 15:38:15;;;;;;;;;;;;;;;;;;5009433;28;839;-68
2021/01/24 15:40:40;;;;;;;;;;;;;;;;;;5008944;28;855;-67
2021/01/24 15:43:06;;;;;;;;;;;;;;;;;;5008523;28;840;-67
2021/01/24 15:45:31;;;;;;;;;;;;;;;;;;5008495;28;834;-68
2021/01/24 15:47:57;;;;;;;;;;;;;;;;;;5008005;28;851;-68
2021/01/24 15:50:22;;;;;;;;;;;;;;;;;;5007589;28;855;-68
2021/01/24 15:52:48;;;;;;;;;;;;;;;;;;5008110;28;815;-67
2021/01/24 15:55:14;;;;;;;;;;;;;;;;;;5008954;28;1886;-68
2021/01/24 15:57:39;;;;;;;;;;;;;;;;;;5008370;28;839;-70
2021/01/24 16:00:06;;;;;;;;;;;;;;;;;;5007878;28;942;-69
2021/01/24 16:02:31;;;;;;;;;;;;;;;;;;5006702;28;1012;-70
2021/01/24 16:04:57;;;;;;;;;;;;;;;;;;5008102;28;891;-69
2021/01/24 16:07:22;;;;;;;;;;;;;;;;;;5007934;28;815;-70
2021/01/24 16:09:48;;;;;;;;;;;;;;;;;;5008182;28;1108;-71
2021/01/24 16:12:13;;;;;;;;;;;;;;;;;;5009298;28;907;-69
2021/01/24 16:14:38;;;;;;;;;;;;;;;;;;5007861;28;1922;-70
2021/01/24 16:17:04;;;;;;;;;;;;;;;;;;5007653;28;842;-69
2021/01/24 16:19:29;;;;;;;;;;;;;;;;;;5007732;28;842;-70
2021/01/24 16:21:54;;;;;;;;;;;;;;;;;;5008519;28;930;-70
2021/01/24 16:24:20;;;;;;;;;;;;;;;;;;5007997;28;830;-70
2021/01/24 16:26:45;;;;;;;;;;;;;;;;;;4998116;28;935;-69
2021/01/24 16:29:11;;;;;;;;;;;;;;;;;;4988408;28;874;-69
2021/01/24 16:31:36;;;;;;;;;;;;;;;;;;4988316;28;898;-70
2021/01/24 16:34:02;;;;;;;;;;;;;;;;;;4987626;28;1918;-70
2021/01/24 16:36:27;;;;;;;;;;;;;;;;;;4987561;28;835;-70
2021/01/24 16:38:53;;;;;;;;;;;;;;;;;;4987967;28;844;-67
2021/01/24 16:41:18;;;;;;;;;;;;;;;;;;4987502;28;874;-69
2021/01/24 16:43:43;;;;;;;;;;;;;;;;;;4988374;28;938;-69
2021/01/24 16:46:09;;;;;;;;;;;;;;;;;;4987981;28;855;-69
2021/01/24 16:48:34;;;;;;;;;;;;;;;;;;4988063;28;866;-69
2021/01/24 16:51:00;;;;;;;;;;;;;;;;;;4987550;28;871;-69
2021/01/24 16:53:25;;;;;;;;;;;;;;;;;;4987494;28;800;-70
2021/01/24 16:55:50;;;;;;;;;;;;;;;;;;4987758;28;1968;-66
2021/01/24 16:58:16;;;;;;;;;;;;;;;;;;4988473;28;879;-68
2021/01/24 17:00:41;;;;;;;;;;;;;;;;;;4989708;28;835;-69
2021/01/24 17:03:07;;;;;;;;;;;;;;;;;;4992149;28;906;-69
2021/01/24 17:05:33;;;;;;;;;;;;;;;;;;4991680;28;844;-70